Station Historical Data
 
Daily Summary for January 18, 2019 Units:  Metric    English   Both
« Previous Day
Next Day »
Daily Weekly Monthly Yearly Custom
  Current: High: Low: Average:
Temperature: -15.2 °C -17.8 °C -15.2 °C -15.2 °C
Dew Point: -15.8 °C -17.8 °C -15.9 °C -15.8 °C
Humidity: 92 % Humidity % 92 % 91 %
Wind Speed: 20.9 km/h 0 km/h 11.9 km/h 17.2 km/h
Wind Gust: 9.8 km/h 0 km/h - -
Wind:WNW - - WSW
Pressure: 34130.9 hPa 0 hPa 34130.9 hPa -
Precipitation: 0 mm      
Historical Graphs
 
 
Tabular Data for January 18, 2019
Time Temperature Dew Point Pressure Wind Wind Speed Wind Gust Humidity Rainfall Rate (Hourly) solar Conditions
-17.8 °C -17.8 °C 0 hPa Calm     Humidity % 0 mm SolarRadiationWatts/m^2 W/m2 Conditions
00:03 -15.1 °C -15.7 °C 34171.5 hPa SW 11.9 km/h 6.9 km/h 92 % 0 mm 0.00 W/m2 RA
00:09 -15.1 °C -15.7 °C 34174.9 hPa SW 15.6 km/h 12.2 km/h 92 % 0 mm 0.00 W/m2 RA
00:13 -15.1 °C -15.8 °C 34174.9 hPa WSW 15.6 km/h 11.1 km/h 92 % 0 mm 0.00 W/m2 OVC
00:18 -15.2 °C -15.8 °C 34174.9 hPa West 12.9 km/h 10.3 km/h 92 % 0 mm 0.00 W/m2 OVC
00:24 -15.2 °C -15.8 °C 34174.9 hPa WSW 15.6 km/h 10.9 km/h 92 % 0 mm 0.00 W/m2 OVC
00:28 -15.2 °C -15.8 °C 34168.1 hPa WSW 18.2 km/h 14 km/h 92 % 0 mm 0.00 W/m2 OVC
00:33 -15.2 °C -15.8 °C 34164.7 hPa WSW 17.9 km/h 8 km/h 92 % 0 mm 0.00 W/m2 OVC
00:39 -15.2 °C -15.9 °C 34168.1 hPa WNW 11.9 km/h 7.2 km/h 92 % 0 mm 0.00 W/m2 OVC
00:43 -15.2 °C -15.9 °C 34168.1 hPa WSW 20.9 km/h 12.7 km/h 92 % 0 mm 0.00 W/m2 OVC
00:49 -15.2 °C -15.9 °C 34168.1 hPa WSW 15.6 km/h 12.2 km/h 92 % 0 mm 0.00 W/m2 OVC
00:54 -15.2 °C -15.9 °C 34168.1 hPa West 18.2 km/h 14.8 km/h 92 % 0 mm 0.00 W/m2 OVC
00:58 -15.2 °C -15.9 °C 34168.1 hPa WSW 18.2 km/h 8.5 km/h 92 % 0 mm 0.00 W/m2 OVC
01:04 -15.2 °C -15.9 °C 34168.1 hPa West 15 km/h 8.9 km/h 92 % 0 mm 0.00 W/m2 OVC
01:08 -15.2 °C -15.9 °C 34164.7 hPa WSW 20.8 km/h 10.9 km/h 92 % 0 mm 0.00 W/m2 OVC
01:14 -15.2 °C -15.9 °C 34164.7 hPa SW 15.6 km/h 13.2 km/h 92 % 0 mm 0.00 W/m2 OVC
01:19 -15.2 °C -15.8 °C 34164.7 hPa WSW 15.6 km/h 7.7 km/h 92 % 0 mm 0.00 W/m2 OVC
01:23 -15.2 °C -15.8 °C 34164.7 hPa WSW 23.8 km/h 10.9 km/h 92 % 0 mm 0.00 W/m2 OVC
01:29 -15.2 °C -15.8 °C 34161.4 hPa WNW 15.6 km/h 9.3 km/h 92 % 0 mm 0.00 W/m2 OVC
01:34 -15.2 °C -15.8 °C 34161.4 hPa West 18.2 km/h 10.9 km/h 92 % 0 mm 0.00 W/m2 OVC
01:38 -15.2 °C -15.8 °C 34164.7 hPa West 20.9 km/h 9.3 km/h 92 % 0 mm 0.00 W/m2 OVC
01:44 -15.2 °C -15.8 °C 34158 hPa SW 20.9 km/h 11.4 km/h 92 % 0 mm 0.00 W/m2 OVC
01:49 -15.2 °C -15.8 °C 34154.6 hPa WSW 20.8 km/h 15.3 km/h 92 % 0 mm 0.00 W/m2 OVC
01:54 -15.2 °C -15.8 °C 34158 hPa WSW 20.9 km/h 13.7 km/h 92 % 0 mm 0.00 W/m2 OVC
01:58 -15.2 °C -15.8 °C 34158 hPa WSW 15.6 km/h 10.6 km/h 92 % 0 mm 0.00 W/m2 OVC
02:03 -15.2 °C -15.8 °C 34161.4 hPa West 12.9 km/h 7.2 km/h 92 % 0 mm 0.00 W/m2 BKN
02:08 -15.2 °C -15.8 °C 34158 hPa West 12.9 km/h 8.5 km/h 92 % 0 mm 0.00 W/m2 BKN
02:13 -15.2 °C -15.8 °C 34158 hPa WSW 15 km/h 5 km/h 92 % 0 mm 0.00 W/m2 BKN
02:18 -15.2 °C -15.8 °C 34151.2 hPa SW 23.8 km/h 16.9 km/h 92 % 0 mm 0.00 W/m2 BKN
02:23 -15.2 °C -15.8 °C 34154.6 hPa West 18.2 km/h 12.9 km/h 92 % 0 mm 0.00 W/m2 BKN
02:28 -15.2 °C -15.8 °C 34147.8 hPa WSW 20.9 km/h 12.4 km/h 92 % 0 mm 0.00 W/m2 BKN
02:33 -15.2 °C -15.8 °C 34151.2 hPa WSW 18.2 km/h 11.6 km/h 92 % 0 mm 0.00 W/m2 BKN
02:38 -15.2 °C -15.8 °C 34154.6 hPa SW 18.2 km/h 11.9 km/h 92 % 0 mm 0.00 W/m2 BKN
02:44 -15.2 °C -15.8 °C 34154.6 hPa WSW 23.8 km/h 15.3 km/h 92 % 0 mm 0.00 W/m2 BKN
02:48 -15.2 °C -15.8 °C 34154.6 hPa West 17.9 km/h 11.1 km/h 92 % 0 mm 0.00 W/m2 BKN
02:53 -15.2 °C -15.8 °C 34151.2 hPa WSW 17.9 km/h 11.1 km/h 92 % 0 mm 0.00 W/m2 BKN
02:59 -15.2 °C -15.8 °C 34154.6 hPa WSW 18.2 km/h 13.2 km/h 92 % 0 mm 0.00 W/m2 BKN
03:03 -15.2 °C -15.8 °C 34151.2 hPa WSW 17.9 km/h 10.1 km/h 92 % 0 mm 0.00 W/m2 BKN
03:09 -15.2 °C -15.8 °C 34151.2 hPa SW 18.2 km/h 12.2 km/h 92 % 0 mm 0.00 W/m2 BKN
03:14 -15.2 °C -15.8 °C 34147.8 hPa SW 12.9 km/h 10.1 km/h 92 % 0 mm 0.00 W/m2 BKN
03:18 -15.2 °C -15.8 °C 34147.8 hPa SW 12.9 km/h 9 km/h 92 % 0 mm 0.00 W/m2 BKN
03:24 -15.1 °C -15.8 °C 34147.8 hPa SW 12.9 km/h 5.6 km/h 92 % 0 mm 0.00 W/m2 BKN
03:29 -15.1 °C -15.8 °C 34147.8 hPa SW 18.2 km/h 13.2 km/h 92 % 0 mm 0.00 W/m2 BKN
03:33 -15.1 °C -15.8 °C 34147.8 hPa SW 12.9 km/h 6.3 km/h 92 % 0 mm 0.00 W/m2 BKN
03:39 -15.1 °C -15.8 °C 34147.8 hPa WSW 15 km/h 7.6 km/h 92 % 0 mm 0.00 W/m2 BKN
03:43 -15.2 °C -15.8 °C 34147.8 hPa WSW 15.6 km/h 9.3 km/h 92 % 0 mm 0.00 W/m2 BKN
03:49 -15.2 °C -15.8 °C 34141 hPa SSW 17.9 km/h 10.9 km/h 92 % 0 mm 0.00 W/m2 BKN
03:54 -15.2 °C -15.8 °C 34137.7 hPa WSW 18.2 km/h 11.1 km/h 92 % 0 mm 0.00 W/m2 BKN
03:58 -15.2 °C -15.9 °C 34137.7 hPa WNW 20.9 km/h 9.3 km/h 92 % 0 mm 0.00 W/m2 BKN
04:04 -15.2 °C -15.9 °C 34141 hPa WSW 15 km/h 8 km/h 92 % 0 mm 0.00 W/m2 BKN
04:09 -15.2 °C -15.9 °C 34137.7 hPa SW 15.6 km/h 10.1 km/h 92 % 0 mm 0.00 W/m2 BKN
04:14 -15.2 °C -15.9 °C 34137.7 hPa West 18.2 km/h 14 km/h 92 % 0 mm 0.00 W/m2 BKN
04:19 -15.2 °C -15.9 °C 34137.7 hPa WSW 29.8 km/h 17.1 km/h 92 % 0 mm 0.00 W/m2 BKN
04:24 -15.2 °C -15.9 °C 34134.3 hPa SW 17.9 km/h 9.7 km/h 92 % 0 mm 0.00 W/m2 BKN
04:29 -15.2 °C -15.9 °C 34134.3 hPa WSW 20.9 km/h 15.3 km/h 92 % 0 mm 0.00 W/m2 BKN
04:33 -15.2 °C -15.9 °C 34137.7 hPa WNW 18.2 km/h 13.5 km/h 92 % 0 mm 0.00 W/m2 BKN
04:37 -15.2 °C -15.9 °C 34134.3 hPa WSW 11.9 km/h 7.2 km/h 92 % 0 mm 0.00 W/m2 BKN
04:43 -15.2 °C -15.8 °C 34134.3 hPa WSW 15 km/h 10.1 km/h 92 % 0 mm 0.00 W/m2 BKN
04:48 -15.2 °C -15.9 °C 34137.7 hPa WNW 11.9 km/h 8.2 km/h 92 % 0 mm 0.00 W/m2 BKN
04:53 -15.2 °C -15.9 °C 34134.3 hPa West 15.6 km/h 12.7 km/h 92 % 0 mm 0.00 W/m2 BKN
04:58 -15.2 °C -15.8 °C 34134.3 hPa West 20.9 km/h 11.1 km/h 92 % 0 mm 0.00 W/m2 BKN
05:03 -15.2 °C -15.8 °C 34134.3 hPa West 20.8 km/h 14.2 km/h 92 % 0 mm 0.00 W/m2 BKN
05:08 -15.2 °C -15.8 °C 34130.9 hPa WSW 20.9 km/h 16.9 km/h 92 % 0 mm 0.00 W/m2 BKN
05:13 -15.2 °C -15.8 °C 34130.9 hPa WNW 20.9 km/h 9.8 km/h 92 % 0 mm 0.00 W/m2 BKN
Juneau County Weather
Compliments of Weather Underground - 2 mb